sensor_id;sensor_type;location;lat;lon;timestamp;P1;durP1;ratioP1;P2;durP2;ratioP2
20772;SDS011;10546;50.674;4.616;2023-10-08T06:14:15;12.98;;;6.07;;
20772;SDS011;10546;50.674;4.616;2023-10-08T06:17:11;11.70;;;5.30;;
20772;SDS011;10546;50.674;4.616;2023-10-08T06:19:50;11.98;;;5.68;;
20772;SDS011;10546;50.674;4.616;2023-10-08T06:22:33;14.70;;;6.20;;
20772;SDS011;10546;50.674;4.616;2023-10-08T06:25:14;14.32;;;5.82;;
20772;SDS011;10546;50.674;4.616;2023-10-08T06:27:50;12.80;;;6.38;;
20772;SDS011;10546;50.674;4.616;2023-10-08T06:31:10;11.77;;;6.10;;
20772;SDS011;10546;50.674;4.616;2023-10-08T06:33:41;12.38;;;6.05;;
20772;SDS011;10546;50.674;4.616;2023-10-08T06:36:10;12.82;;;5.88;;
20772;SDS011;10546;50.674;4.616;2023-10-08T06:38:41;11.00;;;5.88;;
20772;SDS011;10546;50.674;4.616;2023-10-08T06:41:09;13.35;;;4.95;;
20772;SDS011;10546;50.674;4.616;2023-10-08T06:43:59;14.52;;;5.60;;
20772;SDS011;10546;50.674;4.616;2023-10-08T06:46:31;12.27;;;5.63;;
20772;SDS011;10546;50.674;4.616;2023-10-08T06:49:06;9.65;;;4.95;;
20772;SDS011;10546;50.674;4.616;2023-10-08T06:51:40;10.88;;;5.50;;
20772;SDS011;10546;50.674;4.616;2023-10-08T06:54:10;28.08;;;12.70;;
20772;SDS011;10546;50.674;4.616;2023-10-08T06:57:12;17.05;;;5.90;;
20772;SDS011;10546;50.674;4.616;2023-10-08T07:00:35;11.73;;;4.93;;
20772;SDS011;10546;50.674;4.616;2023-10-08T07:03:25;11.13;;;5.13;;
20772;SDS011;10546;50.674;4.616;2023-10-08T07:06:07;12.65;;;6.50;;
20772;SDS011;10546;50.674;4.616;2023-10-08T07:08:53;17.48;;;9.48;;
20772;SDS011;10546;50.674;4.616;2023-10-08T07:12:28;15.23;;;6.38;;
20772;SDS011;10546;50.674;4.616;2023-10-08T07:15:12;9.63;;;4.70;;
20772;SDS011;10546;50.674;4.616;2023-10-08T07:17:39;8.90;;;4.68;;
20772;SDS011;10546;50.674;4.616;2023-10-08T07:20:09;10.52;;;4.47;;
20772;SDS011;10546;50.674;4.616;2023-10-08T07:22:40;7.72;;;4.63;;
20772;SDS011;10546;50.674;4.616;2023-10-08T07:25:14;9.63;;;4.22;;
20772;SDS011;10546;50.674;4.616;2023-10-08T07:31:51;12.80;;;5.65;;
20772;SDS011;10546;50.674;4.616;2023-10-08T07:47:23;9.27;;;4.35;;
20772;SDS011;10546;50.674;4.616;2023-10-08T07:53:04;8.70;;;3.90;;
20772;SDS011;10546;50.674;4.616;2023-10-08T07:56:10;9.35;;;3.90;;
20772;SDS011;10546;50.674;4.616;2023-10-08T07:58:46;9.80;;;3.70;;
20772;SDS011;10546;50.674;4.616;2023-10-08T08:01:58;10.32;;;4.25;;
20772;SDS011;10546;50.674;4.616;2023-10-08T08:04:30;11.63;;;4.00;;
20772;SDS011;10546;50.674;4.616;2023-10-08T08:07:24;10.27;;;4.00;;
20772;SDS011;10546;50.674;4.616;2023-10-08T08:23:45;10.30;;;4.03;;
20772;SDS011;10546;50.674;4.616;2023-10-08T08:26:31;11.73;;;4.68;;
20772;SDS011;10546;50.674;4.616;2023-10-08T08:29:21;12.23;;;4.40;;
20772;SDS011;10546;50.674;4.616;2023-10-08T08:31:49;7.05;;;4.20;;
20772;SDS011;10546;50.674;4.616;2023-10-08T08:34:42;8.93;;;3.85;;
20772;SDS011;10546;50.674;4.616;2023-10-08T08:37:29;7.45;;;4.18;;
20772;SDS011;10546;50.674;4.616;2023-10-08T08:40:20;10.32;;;4.53;;
20772;SDS011;10546;50.674;4.616;2023-10-08T08:43:27;12.27;;;3.85;;
20772;SDS011;10546;50.674;4.616;2023-10-08T08:46:04;8.50;;;4.13;;
20772;SDS011;10546;50.674;4.616;2023-10-08T08:48:43;10.82;;;3.92;;
20772;SDS011;10546;50.674;4.616;2023-10-08T08:51:51;11.13;;;4.10;;
20772;SDS011;10546;50.674;4.616;2023-10-08T08:54:27;8.50;;;4.47;;
20772;SDS011;10546;50.674;4.616;2023-10-08T08:57:03;9.25;;;4.47;;
20772;SDS011;10546;50.674;4.616;2023-10-08T09:02:56;10.25;;;4.45;;
20772;SDS011;10546;50.674;4.616;2023-10-08T09:05:42;11.30;;;4.63;;
20772;SDS011;10546;50.674;4.616;2023-10-08T09:08:17;10.90;;;4.20;;
20772;SDS011;10546;50.674;4.616;2023-10-08T09:10:47;11.25;;;4.43;;
20772;SDS011;10546;50.674;4.616;2023-10-08T09:13:45;12.82;;;4.80;;
20772;SDS011;10546;50.674;4.616;2023-10-08T09:16:24;8.68;;;4.25;;
20772;SDS011;10546;50.674;4.616;2023-10-08T09:18:54;9.00;;;4.22;;
20772;SDS011;10546;50.674;4.616;2023-10-08T09:21:29;9.02;;;4.60;;
20772;SDS011;10546;50.674;4.616;2023-10-08T09:23:58;8.93;;;4.38;;
20772;SDS011;10546;50.674;4.616;2023-10-08T09:26:24;9.68;;;4.07;;
20772;SDS011;10546;50.674;4.616;2023-10-08T09:28:57;9.50;;;3.83;;
20772;SDS011;10546;50.674;4.616;2023-10-08T09:38:07;10.93;;;4.28;;
20772;SDS011;10546;50.674;4.616;2023-10-08T09:40:41;11.07;;;4.55;;
20772;SDS011;10546;50.674;4.616;2023-10-08T09:47:12;13.13;;;4.65;;
20772;SDS011;10546;50.674;4.616;2023-10-08T09:50:02;12.30;;;4.22;;
20772;SDS011;10546;50.674;4.616;2023-10-08T09:52:49;11.45;;;4.20;;
20772;SDS011;10546;50.674;4.616;2023-10-08T09:55:22;12.38;;;5.20;;
20772;SDS011;10546;50.674;4.616;2023-10-08T09:57:53;12.15;;;4.30;;
20772;SDS011;10546;50.674;4.616;2023-10-08T10:00:34;13.23;;;4.22;;
20772;SDS011;10546;50.674;4.616;2023-10-08T10:03:05;11.55;;;4.10;;
20772;SDS011;10546;50.674;4.616;2023-10-08T10:42:08;12.48;;;4.05;;
20772;SDS011;10546;50.674;4.616;2023-10-08T10:45:17;13.68;;;4.47;;
20772;SDS011;10546;50.674;4.616;2023-10-08T11:19:12;12.13;;;4.60;;
20772;SDS011;10546;50.674;4.616;2023-10-08T11:22:22;10.45;;;4.38;;
20772;SDS011;10546;50.674;4.616;2023-10-08T11:37:46;15.57;;;5.40;;
20772;SDS011;10546;50.674;4.616;2023-10-08T11:40:48;10.88;;;5.03;;
20772;SDS011;10546;50.674;4.616;2023-10-08T11:43:48;13.20;;;4.82;;
20772;SDS011;10546;50.674;4.616;2023-10-08T11:46:41;8.50;;;4.35;;
20772;SDS011;10546;50.674;4.616;2023-10-08T11:54:20;13.73;;;5.80;;
20772;SDS011;10546;50.674;4.616;2023-10-08T11:57:17;12.60;;;4.70;;
20772;SDS011;10546;50.674;4.616;2023-10-08T12:00:42;13.40;;;5.55;;
20772;SDS011;10546;50.674;4.616;2023-10-08T12:03:51;9.25;;;4.90;;
20772;SDS011;10546;50.674;4.616;2023-10-08T12:07:00;14.02;;;4.93;;
20772;SDS011;10546;50.674;4.616;2023-10-08T12:10:05;11.55;;;5.00;;
20772;SDS011;10546;50.674;4.616;2023-10-08T12:12:41;10.02;;;5.15;;
20772;SDS011;10546;50.674;4.616;2023-10-08T12:18:12;10.48;;;4.75;;
20772;SDS011;10546;50.674;4.616;2023-10-08T12:21:18;10.90;;;4.85;;
20772;SDS011;10546;50.674;4.616;2023-10-08T13:03:35;12.38;;;5.00;;
20772;SDS011;10546;50.674;4.616;2023-10-08T13:06:29;12.85;;;5.32;;
20772;SDS011;10546;50.674;4.616;2023-10-08T13:08:59;10.52;;;4.95;;
20772;SDS011;10546;50.674;4.616;2023-10-08T13:11:31;11.02;;;5.15;;
20772;SDS011;10546;50.674;4.616;2023-10-08T13:14:02;12.63;;;5.22;;
20772;SDS011;10546;50.674;4.616;2023-10-08T13:17:05;11.95;;;5.45;;
20772;SDS011;10546;50.674;4.616;2023-10-08T13:19:35;15.60;;;5.28;;
20772;SDS011;10546;50.674;4.616;2023-10-08T13:22:03;10.10;;;5.15;;
20772;SDS011;10546;50.674;4.616;2023-10-08T13:24:34;15.32;;;5.93;;
20772;SDS011;10546;50.674;4.616;2023-10-08T13:27:01;8.15;;;4.60;;
20772;SDS011;10546;50.674;4.616;2023-10-08T13:29:26;15.98;;;5.65;;
20772;SDS011;10546;50.674;4.616;2023-10-08T13:31:57;11.90;;;4.68;;
20772;SDS011;10546;50.674;4.616;2023-10-08T13:34:26;14.70;;;5.25;;
20772;SDS011;10546;50.674;4.616;2023-10-08T13:36:53;11.13;;;4.90;;
20772;SDS011;10546;50.674;4.616;2023-10-08T13:39:20;17.73;;;5.43;;
20772;SDS011;10546;50.674;4.616;2023-10-08T13:41:46;15.00;;;5.32;;
20772;SDS011;10546;50.674;4.616;2023-10-08T13:44:17;14.07;;;5.05;;
20772;SDS011;10546;50.674;4.616;2023-10-08T13:46:44;14.55;;;5.32;;
20772;SDS011;10546;50.674;4.616;2023-10-08T13:49:15;16.70;;;4.82;;
20772;SDS011;10546;50.674;4.616;2023-10-08T13:51:41;10.15;;;4.78;;
20772;SDS011;10546;50.674;4.616;2023-10-08T13:54:11;11.90;;;4.90;;
20772;SDS011;10546;50.674;4.616;2023-10-08T13:56:38;14.57;;;5.30;;
20772;SDS011;10546;50.674;4.616;2023-10-08T13:59:14;15.50;;;5.63;;
20772;SDS011;10546;50.674;4.616;2023-10-08T14:01:59;12.70;;;6.47;;
20772;SDS011;10546;50.674;4.616;2023-10-08T14:05:04;14.27;;;5.97;;
20772;SDS011;10546;50.674;4.616;2023-10-08T14:07:37;11.73;;;6.05;;
20772;SDS011;10546;50.674;4.616;2023-10-08T14:10:03;11.05;;;5.13;;
20772;SDS011;10546;50.674;4.616;2023-10-08T14:12:33;14.38;;;5.38;;
20772;SDS011;10546;50.674;4.616;2023-10-08T14:15:00;13.95;;;5.40;;
20772;SDS011;10546;50.674;4.616;2023-10-08T14:17:32;13.73;;;5.32;;
20772;SDS011;10546;50.674;4.616;2023-10-08T14:20:13;11.75;;;4.75;;
20772;SDS011;10546;50.674;4.616;2023-10-08T14:22:40;10.65;;;5.07;;
20772;SDS011;10546;50.674;4.616;2023-10-08T14:25:09;14.40;;;5.72;;
20772;SDS011;10546;50.674;4.616;2023-10-08T14:27:40;11.25;;;4.93;;
20772;SDS011;10546;50.674;4.616;2023-10-08T14:30:09;14.40;;;5.28;;
20772;SDS011;10546;50.674;4.616;2023-10-08T14:32:46;11.10;;;5.07;;
20772;SDS011;10546;50.674;4.616;2023-10-08T14:35:12;16.75;;;5.40;;
20772;SDS011;10546;50.674;4.616;2023-10-08T14:37:57;11.15;;;4.90;;
20772;SDS011;10546;50.674;4.616;2023-10-08T14:40:41;18.75;;;5.82;;
20772;SDS011;10546;50.674;4.616;2023-10-08T14:43:36;14.75;;;5.03;;
20772;SDS011;10546;50.674;4.616;2023-10-08T14:46:02;13.27;;;4.72;;
20772;SDS011;10546;50.674;4.616;2023-10-08T14:48:31;13.82;;;5.35;;
20772;SDS011;10546;50.674;4.616;2023-10-08T14:51:00;9.68;;;4.63;;
20772;SDS011;10546;50.674;4.616;2023-10-08T14:53:31;14.27;;;4.82;;
20772;SDS011;10546;50.674;4.616;2023-10-08T14:55:59;9.60;;;4.75;;
20772;SDS011;10546;50.674;4.616;2023-10-08T14:58:28;11.70;;;6.32;;
20772;SDS011;10546;50.674;4.616;2023-10-08T15:00:56;9.38;;;4.47;;
20772;SDS011;10546;50.674;4.616;2023-10-08T15:03:22;13.05;;;4.78;;
20772;SDS011;10546;50.674;4.616;2023-10-08T15:05:47;10.63;;;4.50;;
20772;SDS011;10546;50.674;4.616;2023-10-08T15:08:14;14.48;;;5.63;;
20772;SDS011;10546;50.674;4.616;2023-10-08T15:10:43;10.90;;;5.15;;
20772;SDS011;10546;50.674;4.616;2023-10-08T15:13:17;12.75;;;5.55;;
20772;SDS011;10546;50.674;4.616;2023-10-08T15:15:44;11.93;;;5.05;;
20772;SDS011;10546;50.674;4.616;2023-10-08T15:18:11;8.88;;;4.60;;
20772;SDS011;10546;50.674;4.616;2023-10-08T15:20:40;15.23;;;4.75;;
20772;SDS011;10546;50.674;4.616;2023-10-08T15:23:31;14.98;;;5.47;;
20772;SDS011;10546;50.674;4.616;2023-10-08T15:25:59;9.55;;;5.32;;
20772;SDS011;10546;50.674;4.616;2023-10-08T15:29:08;12.63;;;4.95;;
20772;SDS011;10546;50.674;4.616;2023-10-08T15:32:14;10.13;;;4.70;;
20772;SDS011;10546;50.674;4.616;2023-10-08T15:34:47;14.75;;;5.07;;
20772;SDS011;10546;50.674;4.616;2023-10-08T15:38:03;12.13;;;4.75;;
20772;SDS011;10546;50.674;4.616;2023-10-08T15:40:47;10.25;;;5.05;;
20772;SDS011;10546;50.674;4.616;2023-10-08T15:43:20;12.18;;;4.93;;
20772;SDS011;10546;50.674;4.616;2023-10-08T15:46:10;11.88;;;5.20;;
20772;SDS011;10546;50.674;4.616;2023-10-08T15:48:36;12.15;;;5.13;;
20772;SDS011;10546;50.674;4.616;2023-10-08T15:51:02;10.55;;;4.82;;
20772;SDS011;10546;50.674;4.616;2023-10-08T15:53:28;10.65;;;4.88;;
20772;SDS011;10546;50.674;4.616;2023-10-08T15:55:56;15.65;;;5.18;;
20772;SDS011;10546;50.674;4.616;2023-10-08T15:58:21;11.95;;;5.93;;
20772;SDS011;10546;50.674;4.616;2023-10-08T16:00:47;9.75;;;4.43;;
20772;SDS011;10546;50.674;4.616;2023-10-08T16:03:13;13.32;;;5.63;;
20772;SDS011;10546;50.674;4.616;2023-10-08T16:05:42;9.35;;;4.78;;
20772;SDS011;10546;50.674;4.616;2023-10-08T16:08:15;12.35;;;4.63;;
20772;SDS011;10546;50.674;4.616;2023-10-08T16:10:41;13.50;;;5.20;;
20772;SDS011;10546;50.674;4.616;2023-10-08T16:13:07;12.35;;;4.93;;
20772;SDS011;10546;50.674;4.616;2023-10-08T16:15:34;12.75;;;4.90;;
20772;SDS011;10546;50.674;4.616;2023-10-08T16:18:00;9.20;;;4.88;;
20772;SDS011;10546;50.674;4.616;2023-10-08T16:20:28;12.40;;;4.63;;
20772;SDS011;10546;50.674;4.616;2023-10-08T16:22:55;11.55;;;5.22;;
20772;SDS011;10546;50.674;4.616;2023-10-08T16:25:21;15.75;;;5.30;;
20772;SDS011;10546;50.674;4.616;2023-10-08T16:27:48;16.60;;;6.35;;
20772;SDS011;10546;50.674;4.616;2023-10-08T16:30:20;11.95;;;4.97;;
20772;SDS011;10546;50.674;4.616;2023-10-08T16:32:53;9.00;;;4.68;;
20772;SDS011;10546;50.674;4.616;2023-10-08T16:35:22;14.25;;;5.50;;
20772;SDS011;10546;50.674;4.616;2023-10-08T16:37:51;11.07;;;5.10;;
20772;SDS011;10546;50.674;4.616;2023-10-08T16:40:18;12.93;;;5.45;;
20772;SDS011;10546;50.674;4.616;2023-10-08T16:42:47;12.02;;;4.88;;
20772;SDS011;10546;50.674;4.616;2023-10-08T16:45:13;14.02;;;5.05;;
20772;SDS011;10546;50.674;4.616;2023-10-08T16:47:46;10.40;;;5.13;;
20772;SDS011;10546;50.674;4.616;2023-10-08T16:50:12;15.88;;;5.43;;
20772;SDS011;10546;50.674;4.616;2023-10-08T16:52:38;10.25;;;4.68;;
20772;SDS011;10546;50.674;4.616;2023-10-08T16:55:04;11.18;;;5.40;;
20772;SDS011;10546;50.674;4.616;2023-10-08T16:57:30;14.25;;;5.70;;
20772;SDS011;10546;50.674;4.616;2023-10-08T16:59:56;13.15;;;5.70;;
20772;SDS011;10546;50.674;4.616;2023-10-08T17:02:22;11.70;;;5.30;;
20772;SDS011;10546;50.674;4.616;2023-10-08T17:04:48;10.80;;;5.50;;
20772;SDS011;10546;50.674;4.616;2023-10-08T17:07:14;13.98;;;5.25;;
20772;SDS011;10546;50.674;4.616;2023-10-08T17:09:43;13.65;;;5.95;;
20772;SDS011;10546;50.674;4.616;2023-10-08T17:12:08;19.98;;;6.50;;
20772;SDS011;10546;50.674;4.616;2023-10-08T17:14:35;14.65;;;7.00;;
20772;SDS011;10546;50.674;4.616;2023-10-08T17:17:01;14.75;;;5.88;;
20772;SDS011;10546;50.674;4.616;2023-10-08T17:19:29;10.63;;;5.75;;
20772;SDS011;10546;50.674;4.616;2023-10-08T17:21:55;17.70;;;6.25;;
20772;SDS011;10546;50.674;4.616;2023-10-08T17:24:21;12.27;;;5.60;;
20772;SDS011;10546;50.674;4.616;2023-10-08T17:26:47;14.00;;;5.60;;
20772;SDS011;10546;50.674;4.616;2023-10-08T17:29:14;11.73;;;5.75;;
20772;SDS011;10546;50.674;4.616;2023-10-08T17:31:43;9.65;;;5.40;;
20772;SDS011;10546;50.674;4.616;2023-10-08T17:34:11;11.20;;;5.40;;
20772;SDS011;10546;50.674;4.616;2023-10-08T17:36:38;11.32;;;5.75;;
20772;SDS011;10546;50.674;4.616;2023-10-08T17:39:04;19.70;;;5.95;;
20772;SDS011;10546;50.674;4.616;2023-10-08T17:41:37;15.15;;;5.45;;
20772;SDS011;10546;50.674;4.616;2023-10-08T17:44:03;13.00;;;6.03;;
20772;SDS011;10546;50.674;4.616;2023-10-08T17:46:31;10.15;;;5.65;;
20772;SDS011;10546;50.674;4.616;2023-10-08T17:48:57;11.35;;;6.13;;
20772;SDS011;10546;50.674;4.616;2023-10-08T17:51:23;10.85;;;5.88;;
20772;SDS011;10546;50.674;4.616;2023-10-08T17:53:50;15.07;;;5.78;;
20772;SDS011;10546;50.674;4.616;2023-10-08T17:56:16;12.82;;;6.05;;
20772;SDS011;10546;50.674;4.616;2023-10-08T17:58:43;12.80;;;6.63;;
20772;SDS011;10546;50.674;4.616;2023-10-08T18:01:09;15.73;;;5.80;;
20772;SDS011;10546;50.674;4.616;2023-10-08T18:03:39;16.15;;;5.95;;
20772;SDS011;10546;50.674;4.616;2023-10-08T18:06:08;15.88;;;6.10;;
20772;SDS011;10546;50.674;4.616;2023-10-08T18:08:36;12.45;;;5.80;;
20772;SDS011;10546;50.674;4.616;2023-10-08T18:11:04;21.48;;;10.07;;
20772;SDS011;10546;50.674;4.616;2023-10-08T18:13:30;12.13;;;6.45;;
20772;SDS011;10546;50.674;4.616;2023-10-08T18:15:58;16.08;;;6.43;;
20772;SDS011;10546;50.674;4.616;2023-10-08T18:18:24;13.45;;;5.93;;
20772;SDS011;10546;50.674;4.616;2023-10-08T18:20:53;12.60;;;6.63;;
20772;SDS011;10546;50.674;4.616;2023-10-08T18:23:23;10.63;;;5.78;;
20772;SDS011;10546;50.674;4.616;2023-10-08T18:25:50;16.48;;;6.25;;
20772;SDS011;10546;50.674;4.616;2023-10-08T18:28:19;15.68;;;5.93;;
20772;SDS011;10546;50.674;4.616;2023-10-08T18:30:45;11.30;;;6.05;;
20772;SDS011;10546;50.674;4.616;2023-10-08T18:33:11;15.27;;;7.20;;
20772;SDS011;10546;50.674;4.616;2023-10-08T18:35:40;21.50;;;9.13;;
20772;SDS011;10546;50.674;4.616;2023-10-08T18:38:05;17.13;;;8.93;;
20772;SDS011;10546;50.674;4.616;2023-10-08T18:40:37;12.65;;;6.50;;
20772;SDS011;10546;50.674;4.616;2023-10-08T18:43:04;11.20;;;6.15;;
20772;SDS011;10546;50.674;4.616;2023-10-08T18:45:33;11.25;;;5.70;;
20772;SDS011;10546;50.674;4.616;2023-10-08T18:47:58;11.88;;;6.38;;
20772;SDS011;10546;50.674;4.616;2023-10-08T18:50:24;13.90;;;5.80;;
20772;SDS011;10546;50.674;4.616;2023-10-08T18:52:50;10.57;;;5.78;;
20772;SDS011;10546;50.674;4.616;2023-10-08T18:55:16;14.32;;;6.72;;
20772;SDS011;10546;50.674;4.616;2023-10-08T18:57:45;16.00;;;5.85;;
20772;SDS011;10546;50.674;4.616;2023-10-08T19:00:16;11.48;;;5.88;;
20772;SDS011;10546;50.674;4.616;2023-10-08T19:02:43;10.88;;;6.15;;
20772;SDS011;10546;50.674;4.616;2023-10-08T19:05:09;10.40;;;5.68;;
20772;SDS011;10546;50.674;4.616;2023-10-08T19:07:36;11.43;;;5.97;;
20772;SDS011;10546;50.674;4.616;2023-10-08T19:10:03;12.48;;;5.85;;
20772;SDS011;10546;50.674;4.616;2023-10-08T19:12:33;13.73;;;6.63;;
20772;SDS011;10546;50.674;4.616;2023-10-08T19:15:01;12.70;;;6.15;;
20772;SDS011;10546;50.674;4.616;2023-10-08T19:17:28;12.95;;;6.03;;
20772;SDS011;10546;50.674;4.616;2023-10-08T19:19:54;12.15;;;5.63;;
20772;SDS011;10546;50.674;4.616;2023-10-08T19:22:20;12.93;;;6.47;;
20772;SDS011;10546;50.674;4.616;2023-10-08T19:24:46;12.43;;;6.20;;
20772;SDS011;10546;50.674;4.616;2023-10-08T19:27:12;12.40;;;6.07;;
20772;SDS011;10546;50.674;4.616;2023-10-08T19:29:38;13.00;;;6.22;;
20772;SDS011;10546;50.674;4.616;2023-10-08T19:32:04;17.02;;;6.55;;
20772;SDS011;10546;50.674;4.616;2023-10-08T19:34:31;13.77;;;5.55;;
20772;SDS011;10546;50.674;4.616;2023-10-08T19:36:57;13.43;;;6.50;;
20772;SDS011;10546;50.674;4.616;2023-10-08T19:39:23;14.70;;;6.70;;
20772;SDS011;10546;50.674;4.616;2023-10-08T19:41:50;12.73;;;6.25;;
20772;SDS011;10546;50.674;4.616;2023-10-08T19:44:16;11.48;;;6.10;;
20772;SDS011;10546;50.674;4.616;2023-10-08T19:46:42;10.75;;;6.15;;
20772;SDS011;10546;50.674;4.616;2023-10-08T19:49:08;11.55;;;6.05;;
20772;SDS011;10546;50.674;4.616;2023-10-08T19:51:36;19.00;;;6.70;;
20772;SDS011;10546;50.674;4.616;2023-10-08T19:54:02;15.55;;;6.15;;
20772;SDS011;10546;50.674;4.616;2023-10-08T19:56:28;12.20;;;6.60;;
20772;SDS011;10546;50.674;4.616;2023-10-08T19:58:54;17.13;;;6.75;;
20772;SDS011;10546;50.674;4.616;2023-10-08T20:01:20;21.30;;;6.88;;
20772;SDS011;10546;50.674;4.616;2023-10-08T20:03:45;12.13;;;6.93;;
20772;SDS011;10546;50.674;4.616;2023-10-08T20:06:11;16.35;;;6.97;;
20772;SDS011;10546;50.674;4.616;2023-10-08T20:08:38;12.48;;;6.40;;
20772;SDS011;10546;50.674;4.616;2023-10-08T20:11:04;21.70;;;7.40;;
20772;SDS011;10546;50.674;4.616;2023-10-08T20:13:30;12.35;;;6.72;;
20772;SDS011;10546;50.674;4.616;2023-10-08T20:15:56;15.70;;;6.28;;
20772;SDS011;10546;50.674;4.616;2023-10-08T20:18:21;14.52;;;6.68;;
20772;SDS011;10546;50.674;4.616;2023-10-08T20:20:48;14.05;;;6.50;;
20772;SDS011;10546;50.674;4.616;2023-10-08T20:23:21;19.38;;;8.20;;
20772;SDS011;10546;50.674;4.616;2023-10-08T20:25:48;17.45;;;8.55;;
20772;SDS011;10546;50.674;4.616;2023-10-08T20:28:17;13.50;;;8.10;;
20772;SDS011;10546;50.674;4.616;2023-10-08T20:30:47;13.45;;;6.53;;
20772;SDS011;10546;50.674;4.616;2023-10-08T20:33:14;11.93;;;6.47;;
20772;SDS011;10546;50.674;4.616;2023-10-08T20:35:42;11.90;;;6.28;;
20772;SDS011;10546;50.674;4.616;2023-10-08T20:38:09;11.05;;;6.45;;
20772;SDS011;10546;50.674;4.616;2023-10-08T20:40:39;15.70;;;6.00;;
20772;SDS011;10546;50.674;4.616;2023-10-08T20:43:09;12.82;;;5.97;;
20772;SDS011;10546;50.674;4.616;2023-10-08T20:45:39;14.75;;;6.53;;
20772;SDS011;10546;50.674;4.616;2023-10-08T20:48:11;10.63;;;6.28;;
20772;SDS011;10546;50.674;4.616;2023-10-08T20:50:38;11.88;;;6.20;;
20772;SDS011;10546;50.674;4.616;2023-10-08T20:53:05;10.82;;;5.90;;
20772;SDS011;10546;50.674;4.616;2023-10-08T20:55:42;13.40;;;6.10;;
20772;SDS011;10546;50.674;4.616;2023-10-08T20:58:12;16.65;;;6.60;;
20772;SDS011;10546;50.674;4.616;2023-10-08T21:00:44;14.05;;;6.20;;
20772;SDS011;10546;50.674;4.616;2023-10-08T21:03:11;17.02;;;6.78;;
20772;SDS011;10546;50.674;4.616;2023-10-08T21:05:38;11.38;;;6.38;;
20772;SDS011;10546;50.674;4.616;2023-10-08T21:08:05;12.90;;;5.68;;
20772;SDS011;10546;50.674;4.616;2023-10-08T21:10:35;14.43;;;6.00;;
20772;SDS011;10546;50.674;4.616;2023-10-08T21:13:03;12.85;;;6.68;;
20772;SDS011;10546;50.674;4.616;2023-10-08T21:15:30;12.52;;;6.78;;
20772;SDS011;10546;50.674;4.616;2023-10-08T21:18:01;11.02;;;6.30;;
20772;SDS011;10546;50.674;4.616;2023-10-08T21:20:29;13.80;;;6.25;;
20772;SDS011;10546;50.674;4.616;2023-10-08T21:22:56;12.98;;;6.35;;
20772;SDS011;10546;50.674;4.616;2023-10-08T21:25:23;13.68;;;6.38;;
20772;SDS011;10546;50.674;4.616;2023-10-08T21:27:52;11.60;;;5.82;;
20772;SDS011;10546;50.674;4.616;2023-10-08T21:30:23;12.43;;;6.05;;
20772;SDS011;10546;50.674;4.616;2023-10-08T21:32:52;14.43;;;6.57;;
20772;SDS011;10546;50.674;4.616;2023-10-08T21:35:19;12.75;;;6.03;;
20772;SDS011;10546;50.674;4.616;2023-10-08T21:37:46;13.10;;;6.13;;
20772;SDS011;10546;50.674;4.616;2023-10-08T21:40:13;11.85;;;6.85;;
20772;SDS011;10546;50.674;4.616;2023-10-08T21:45:10;11.80;;;6.03;;
20772;SDS011;10546;50.674;4.616;2023-10-08T21:47:38;11.15;;;6.40;;
20772;SDS011;10546;50.674;4.616;2023-10-08T21:50:07;12.07;;;6.60;;
20772;SDS011;10546;50.674;4.616;2023-10-08T21:52:37;10.60;;;5.95;;
20772;SDS011;10546;50.674;4.616;2023-10-08T21:55:09;11.27;;;5.97;;
20772;SDS011;10546;50.674;4.616;2023-10-08T21:57:36;13.05;;;6.68;;
20772;SDS011;10546;50.674;4.616;2023-10-08T22:00:06;14.60;;;6.22;;
20772;SDS011;10546;50.674;4.616;2023-10-08T22:02:48;13.52;;;6.18;;
